createdAt,value
2023-01-30T00:01:01.666Z,2.27
2023-01-30T00:03:29.036Z,0.20
2023-01-30T00:05:56.507Z,0.60
2023-01-30T00:08:24.018Z,1.03
2023-01-30T00:10:51.418Z,1.57
2023-01-30T00:13:18.695Z,0.50
2023-01-30T00:15:46.111Z,1.23
2023-01-30T00:18:13.938Z,1.43
2023-01-30T00:20:41.255Z,1.20
2023-01-30T00:23:08.563Z,0.70
2023-01-30T00:25:36.095Z,0.73
2023-01-30T00:28:03.884Z,0.30
2023-01-30T00:30:31.822Z,0.40
2023-01-30T00:33:00.124Z,1.60
2023-01-30T00:35:30.415Z,0.53
2023-01-30T00:37:58.855Z,0.60
2023-01-30T00:40:28.117Z,0.50
2023-01-30T00:43:15.258Z,1.07
2023-01-30T00:46:03.437Z,2.43
2023-01-30T00:48:31.362Z,1.23
2023-01-30T00:50:58.961Z,2.30
2023-01-30T00:53:26.522Z,3.03
2023-01-30T00:55:55.333Z,1.60
2023-01-30T00:58:23.635Z,0.60
2023-01-30T01:00:51.991Z,2.43
2023-01-30T01:03:20.228Z,3.23
2023-01-30T01:05:47.912Z,0.50
2023-01-30T01:08:16.093Z,2.83
2023-01-30T01:10:43.570Z,1.37
2023-01-30T01:13:11.053Z,2.30
2023-01-30T01:15:38.797Z,4.93
2023-01-30T01:18:06.733Z,2.00
2023-01-30T01:20:34.071Z,1.37
2023-01-30T01:23:01.552Z,2.03
2023-01-30T01:25:29.062Z,1.50
2023-01-30T01:27:56.503Z,2.97
2023-01-30T01:30:23.925Z,2.85
2023-01-30T01:32:51.291Z,6.03
2023-01-30T01:35:20.290Z,8.05
2023-01-30T01:37:47.871Z,4.80
2023-01-30T01:40:38.563Z,9.45
2023-01-30T01:43:23.550Z,6.43
2023-01-30T01:46:22.388Z,3.25
2023-01-30T01:48:55.672Z,4.33
2023-01-30T01:51:31.012Z,4.28
2023-01-30T01:54:20.586Z,3.40
2023-01-30T01:56:49.660Z,7.43
2023-01-30T01:59:30.631Z,2.78
2023-01-30T02:02:05.966Z,8.48
2023-01-30T02:04:53.064Z,3.10
2023-01-30T02:07:22.227Z,4.57
2023-01-30T02:09:51.064Z,3.78
2023-01-30T02:12:18.643Z,4.07
2023-01-30T02:14:46.558Z,5.93
2023-01-30T02:17:14.135Z,5.85
2023-01-30T02:19:47.474Z,3.75
2023-01-30T02:22:45.501Z,2.40
2023-01-30T02:25:31.512Z,10.15
2023-01-30T02:28:47.641Z,5.78
2023-01-30T02:31:15.136Z,4.97
2023-01-30T02:33:52.006Z,5.97
2023-01-30T02:37:00.528Z,9.88
2023-01-30T02:39:41.796Z,8.18
2023-01-30T02:42:20.705Z,6.93
2023-01-30T02:45:07.674Z,4.68
2023-01-30T02:47:49.752Z,6.95
2023-01-30T02:50:25.666Z,4.40
2023-01-30T02:52:53.582Z,4.65
2023-01-30T02:55:24.349Z,4.68
2023-01-30T02:57:52.554Z,2.63
2023-01-30T03:00:38.521Z,9.18
2023-01-30T03:03:15.896Z,7.85
2023-01-30T03:06:14.988Z,5.20
2023-01-30T03:09:21.353Z,3.90
2023-01-30T03:12:00.772Z,5.40
2023-01-30T03:14:40.615Z,12.20
2023-01-30T03:17:11.223Z,4.32
2023-01-30T03:19:38.980Z,8.75
2023-01-30T03:22:06.530Z,5.00
2023-01-30T03:24:34.116Z,8.40
2023-01-30T03:27:12.641Z,3.88
2023-01-30T03:29:41.101Z,13.75
2023-01-30T03:32:08.721Z,10.98
2023-01-30T03:34:36.129Z,12.07
2023-01-30T03:37:04.846Z,8.93
2023-01-30T03:39:35.431Z,8.60
2023-01-30T03:42:02.990Z,5.70
2023-01-30T03:44:30.643Z,6.32
2023-01-30T03:46:57.923Z,6.70
2023-01-30T03:49:25.603Z,10.20
2023-01-30T03:51:52.920Z,4.75
2023-01-30T03:54:20.282Z,9.18
2023-01-30T03:56:47.672Z,5.50
2023-01-30T03:59:15.122Z,4.60
2023-01-30T04:01:42.611Z,6.40
2023-01-30T04:04:09.949Z,6.00
2023-01-30T04:06:37.474Z,7.45
2023-01-30T04:09:04.903Z,3.78
2023-01-30T04:11:32.303Z,5.93
2023-01-30T04:13:59.789Z,11.07
2023-01-30T04:16:27.959Z,3.85
2023-01-30T04:18:55.762Z,4.95
2023-01-30T04:21:23.283Z,8.93
2023-01-30T04:23:50.712Z,12.65
2023-01-30T04:26:18.197Z,12.15
2023-01-30T04:28:45.767Z,7.00
2023-01-30T04:31:13.212Z,7.28
2023-01-30T04:33:40.852Z,10.10
2023-01-30T04:36:09.935Z,7.93
2023-01-30T04:38:38.274Z,8.98
2023-01-30T04:41:06.268Z,4.43
2023-01-30T04:43:33.881Z,9.30
2023-01-30T04:46:01.243Z,8.80
2023-01-30T04:48:28.942Z,5.95
2023-01-30T04:50:57.054Z,3.38
2023-01-30T04:53:25.401Z,6.30
2023-01-30T04:55:52.805Z,7.47
2023-01-30T04:58:20.160Z,5.10
2023-01-30T05:00:48.540Z,7.35
2023-01-30T05:03:16.866Z,5.72
2023-01-30T05:05:47.602Z,5.25
2023-01-30T05:08:16.130Z,4.97
2023-01-30T05:10:43.462Z,8.30
2023-01-30T05:13:10.878Z,4.30
2023-01-30T05:15:39.869Z,2.47
2023-01-30T05:18:08.383Z,7.53
2023-01-30T05:20:35.767Z,5.68
2023-01-30T05:23:03.216Z,4.30
2023-01-30T05:25:30.690Z,6.18
2023-01-30T05:27:58.180Z,4.18
2023-01-30T05:30:25.637Z,3.10
2023-01-30T05:32:53.200Z,1.95
2023-01-30T05:35:20.898Z,4.80
2023-01-30T05:37:52.159Z,3.92
2023-01-30T05:40:19.622Z,1.50
2023-01-30T05:42:46.992Z,3.85
2023-01-30T05:45:14.416Z,4.55
2023-01-30T05:47:41.820Z,5.13
2023-01-30T05:50:10.133Z,2.53
2023-01-30T05:52:37.582Z,12.82
2023-01-30T05:55:05.348Z,10.68
2023-01-30T05:57:33.616Z,4.47
2023-01-30T06:00:01.075Z,7.38
2023-01-30T06:02:28.658Z,3.55
2023-01-30T06:04:56.406Z,8.27
2023-01-30T06:07:23.990Z,7.32
2023-01-30T06:09:51.618Z,7.93
2023-01-30T06:12:19.316Z,8.73
2023-01-30T06:14:46.837Z,2.45
2023-01-30T06:17:14.518Z,4.95
2023-01-30T06:19:42.344Z,6.00
2023-01-30T06:22:16.336Z,5.45
2023-01-30T06:24:43.915Z,4.30
2023-01-30T06:27:11.578Z,5.00
2023-01-30T06:29:45.490Z,2.63
2023-01-30T06:32:15.606Z,4.32
2023-01-30T06:34:43.242Z,6.60
2023-01-30T06:37:10.644Z,4.40
2023-01-30T06:39:38.518Z,1.95
2023-01-30T06:42:07.627Z,2.80
2023-01-30T06:44:35.254Z,1.50
2023-01-30T06:47:02.821Z,3.03
2023-01-30T06:49:30.315Z,6.45
2023-01-30T06:51:58.151Z,2.20
2023-01-30T06:54:26.045Z,1.00
2023-01-30T06:56:54.174Z,0.83
2023-01-30T06:59:22.716Z,3.97
2023-01-30T07:01:51.379Z,4.93
2023-01-30T07:04:19.282Z,6.77
2023-01-30T07:06:47.717Z,6.10
2023-01-30T07:09:15.418Z,1.55
2023-01-30T07:11:47.985Z,2.88
2023-01-30T07:14:15.409Z,3.30
2023-01-30T07:16:45.602Z,3.63
2023-01-30T07:19:13.589Z,4.72
2023-01-30T07:21:43.273Z,4.18
2023-01-30T07:24:10.881Z,5.57
2023-01-30T07:26:50.114Z,9.73
2023-01-30T07:29:18.163Z,4.88
2023-01-30T07:31:49.096Z,8.98
2023-01-30T07:34:18.142Z,5.20
2023-01-30T07:36:46.328Z,14.13
2023-01-30T07:39:15.088Z,11.35
2023-01-30T07:41:42.855Z,7.07
2023-01-30T07:44:13.286Z,10.30
2023-01-30T07:46:42.107Z,9.85
2023-01-30T07:49:14.473Z,8.32
2023-01-30T07:51:42.297Z,12.73
2023-01-30T07:54:11.188Z,10.15
2023-01-30T07:56:40.189Z,17.95
2023-01-30T07:59:07.808Z,12.43
2023-01-30T08:01:35.635Z,13.95
2023-01-30T08:04:06.478Z,9.73
2023-01-30T08:06:40.940Z,10.63
2023-01-30T08:09:09.545Z,5.68
2023-01-30T08:11:40.463Z,9.63
2023-01-30T08:14:08.272Z,13.52
2023-01-30T08:16:37.300Z,17.55
2023-01-30T08:19:07.354Z,8.32
2023-01-30T08:21:36.364Z,7.25
2023-01-30T08:24:04.128Z,9.02
2023-01-30T08:26:31.958Z,8.48
2023-01-30T08:28:59.850Z,14.07
2023-01-30T08:31:28.816Z,15.38
2023-01-30T08:33:56.325Z,10.48
2023-01-30T08:36:23.796Z,9.60
2023-01-30T08:38:51.537Z,9.50
2023-01-30T08:41:19.321Z,4.88
2023-01-30T08:43:47.628Z,7.72
2023-01-30T08:46:15.593Z,7.53
2023-01-30T08:48:49.872Z,4.10
2023-01-30T08:51:20.685Z,11.02
2023-01-30T08:53:48.278Z,10.88
2023-01-30T08:56:15.969Z,7.30
2023-01-30T08:58:45.940Z,17.00
2023-01-30T09:01:14.520Z,8.15
2023-01-30T09:03:43.666Z,9.40
2023-01-30T09:06:11.630Z,10.52
2023-01-30T09:08:39.174Z,7.50
2023-01-30T09:11:06.972Z,7.80
2023-01-30T09:13:36.959Z,11.00
2023-01-30T09:16:07.489Z,9.32
2023-01-30T09:18:37.853Z,6.10
2023-01-30T09:21:06.161Z,9.05
2023-01-30T09:23:34.037Z,10.38
2023-01-30T09:26:04.000Z,8.50
2023-01-30T09:28:32.798Z,6.72
2023-01-30T09:31:04.999Z,14.80
2023-01-30T09:33:32.572Z,7.85
2023-01-30T09:36:00.150Z,9.88
2023-01-30T09:38:28.623Z,8.55
2023-01-30T09:41:12.150Z,5.50
2023-01-30T09:44:17.394Z,6.05
2023-01-30T09:46:51.507Z,7.03
2023-01-30T09:49:44.284Z,15.80
2023-01-30T09:52:31.731Z,10.25
2023-01-30T09:55:29.368Z,7.03
2023-01-30T09:57:59.544Z,7.15
2023-01-30T10:00:42.341Z,10.63
2023-01-30T10:03:51.157Z,10.15
2023-01-30T10:06:24.194Z,5.35
2023-01-30T10:08:59.231Z,12.30
2023-01-30T10:11:30.405Z,6.18
2023-01-30T10:14:23.468Z,6.88
2023-01-30T10:17:08.356Z,4.95
2023-01-30T10:20:03.954Z,8.23
2023-01-30T10:22:58.857Z,11.48
2023-01-30T10:25:52.998Z,11.73
2023-01-30T10:28:30.317Z,3.05
2023-01-30T10:31:16.863Z,5.15
2023-01-30T10:34:11.094Z,5.50
2023-01-30T10:36:56.882Z,8.70
2023-01-30T10:39:34.270Z,4.53
2023-01-30T10:42:25.318Z,10.15
2023-01-30T10:44:55.817Z,8.85
2023-01-30T10:47:46.230Z,7.97
2023-01-30T10:50:16.417Z,4.97
2023-01-30T10:52:54.753Z,5.22
2023-01-30T10:55:38.622Z,12.07
2023-01-30T10:58:18.175Z,6.15
2023-01-30T11:01:06.829Z,6.20
2023-01-30T11:03:45.938Z,11.18
2023-01-30T11:06:18.020Z,5.75
2023-01-30T11:08:47.821Z,8.93
2023-01-30T11:11:25.003Z,7.10
2023-01-30T11:14:04.858Z,7.07
2023-01-30T11:16:35.331Z,6.97
2023-01-30T11:19:22.721Z,4.78
2023-01-30T11:21:53.254Z,4.07
2023-01-30T11:24:25.381Z,5.40
2023-01-30T11:26:53.728Z,6.85
2023-01-30T11:29:33.731Z,4.28
2023-01-30T11:32:11.788Z,5.47
2023-01-30T11:34:42.025Z,11.90
2023-01-30T11:37:33.670Z,4.55
2023-01-30T11:40:16.292Z,5.15
2023-01-30T11:43:02.281Z,7.25
2023-01-30T11:45:35.354Z,8.00
2023-01-30T11:48:23.552Z,7.28
2023-01-30T11:51:04.547Z,6.63
2023-01-30T11:54:07.066Z,4.57
2023-01-30T11:56:38.909Z,5.63
2023-01-30T11:59:39.449Z,7.57
2023-01-30T12:02:35.659Z,4.32
2023-01-30T12:05:18.236Z,8.60
2023-01-30T12:07:49.396Z,6.20
2023-01-30T12:10:30.331Z,2.65
2023-01-30T12:13:03.712Z,4.70
2023-01-30T12:15:35.564Z,4.03
2023-01-30T12:18:32.120Z,5.72
2023-01-30T12:21:01.116Z,4.88
2023-01-30T12:23:38.618Z,4.78
2023-01-30T12:26:32.169Z,6.65
2023-01-30T12:29:30.620Z,5.72
2023-01-30T12:32:20.920Z,4.82
2023-01-30T12:34:48.688Z,7.25
2023-01-30T12:37:26.485Z,4.25
2023-01-30T12:39:59.893Z,2.67
2023-01-30T12:42:30.964Z,5.53
2023-01-30T12:45:20.506Z,5.05
2023-01-30T12:48:06.136Z,6.30
2023-01-30T12:50:46.976Z,5.32
2023-01-30T12:53:23.132Z,2.45
2023-01-30T12:56:10.971Z,3.00
2023-01-30T12:59:09.151Z,7.15
2023-01-30T13:02:10.020Z,6.68
2023-01-30T13:05:07.191Z,4.05
2023-01-30T13:07:59.996Z,5.88
2023-01-30T13:10:45.763Z,3.50
2023-01-30T13:13:31.545Z,6.95
2023-01-30T13:16:06.555Z,4.05
2023-01-30T13:18:46.411Z,2.70
2023-01-30T13:21:40.413Z,4.40
2023-01-30T13:24:20.253Z,6.32
2023-01-30T13:26:50.287Z,3.80
2023-01-30T13:29:37.402Z,4.00
2023-01-30T13:32:18.331Z,3.88
2023-01-30T13:34:48.185Z,3.72
2023-01-30T13:37:18.750Z,4.28
2023-01-30T13:40:07.070Z,3.03
2023-01-30T13:42:40.649Z,4.03
2023-01-30T13:45:22.396Z,2.97
2023-01-30T13:48:08.876Z,1.88
2023-01-30T13:50:45.105Z,5.28
2023-01-30T13:53:25.551Z,8.43
2023-01-30T13:56:16.234Z,5.45
2023-01-30T13:59:08.769Z,4.53
2023-01-30T14:02:04.996Z,4.88
2023-01-30T14:05:05.879Z,4.65
2023-01-30T14:07:43.414Z,3.90
2023-01-30T14:10:11.366Z,5.47
2023-01-30T14:12:53.921Z,3.60
2023-01-30T14:15:29.099Z,5.22
2023-01-30T14:18:07.569Z,3.08
2023-01-30T14:20:37.688Z,4.70
2023-01-30T14:23:20.181Z,9.55
2023-01-30T14:25:52.949Z,5.78
2023-01-30T14:28:20.499Z,6.93
2023-01-30T14:30:49.086Z,5.38
2023-01-30T14:33:22.043Z,5.85
2023-01-30T14:36:01.220Z,4.50
2023-01-30T14:38:32.545Z,5.82
2023-01-30T14:41:02.859Z,4.03
2023-01-30T14:43:49.715Z,2.90
2023-01-30T14:46:18.434Z,5.03
2023-01-30T14:48:55.847Z,6.18
2023-01-30T14:51:47.915Z,2.90
2023-01-30T14:54:15.235Z,4.90
2023-01-30T14:56:51.476Z,4.22
2023-01-30T15:00:14.160Z,5.30
2023-01-30T15:02:49.532Z,4.03
2023-01-30T15:05:34.046Z,5.60
2023-01-30T15:08:24.599Z,6.20
2023-01-30T15:10:54.988Z,7.25
2023-01-30T15:13:47.631Z,5.93
2023-01-30T15:16:36.024Z,4.35
2023-01-30T15:19:36.500Z,4.27
2023-01-30T15:22:20.803Z,4.88
2023-01-30T15:25:10.974Z,6.00
2023-01-30T15:36:37.344Z,3.00
2023-01-30T15:39:16.689Z,2.57
2023-01-30T15:41:45.913Z,3.07
2023-01-30T15:44:22.430Z,7.97
2023-01-30T15:46:59.943Z,2.92
2023-01-30T15:49:43.682Z,4.53
2023-01-30T15:52:16.074Z,5.03
2023-01-30T15:54:50.094Z,6.93
2023-01-30T15:57:29.683Z,5.17
2023-01-30T15:59:58.004Z,4.83
2023-01-30T16:02:34.146Z,5.13
2023-01-30T16:05:20.670Z,5.73
2023-01-30T16:07:50.300Z,3.22
2023-01-30T16:10:23.869Z,4.35
2023-01-30T16:12:56.285Z,3.10
2023-01-30T16:15:40.061Z,7.28
2023-01-30T16:18:33.083Z,6.38
2023-01-30T16:21:09.552Z,7.20
2023-01-30T16:24:14.786Z,3.73
2023-01-30T16:26:46.239Z,5.00
2023-01-30T16:31:52.683Z,8.03
2023-01-30T16:34:33.425Z,5.80
2023-01-30T16:40:11.896Z,2.70
2023-01-30T16:43:04.204Z,7.15
2023-01-30T16:52:19.006Z,1.05
2023-01-30T16:57:50.364Z,3.38
2023-01-30T17:06:12.751Z,8.43
2023-01-30T17:11:41.591Z,1.40
2023-01-30T17:14:43.338Z,3.90
2023-01-30T17:17:15.695Z,2.20
2023-01-30T17:19:46.378Z,1.05
2023-01-30T17:22:24.517Z,0.68
2023-01-30T17:27:29.728Z,2.50
2023-01-30T17:35:34.218Z,3.73
2023-01-30T17:38:05.615Z,1.48
2023-01-30T17:40:38.986Z,1.63
2023-01-30T17:43:09.382Z,4.70
2023-01-30T17:45:36.966Z,2.23
2023-01-30T17:48:08.095Z,4.93
2023-01-30T17:50:36.759Z,0.73
2023-01-30T17:53:05.201Z,1.92
2023-01-30T17:55:35.208Z,3.60
2023-01-30T18:00:36.336Z,0.70
2023-01-30T18:03:03.862Z,2.70
2023-01-30T18:05:31.238Z,2.20
2023-01-30T18:07:58.682Z,4.78
2023-01-30T18:10:26.334Z,0.70
2023-01-30T18:12:53.653Z,0.50
2023-01-30T18:15:21.346Z,0.97
2023-01-30T18:17:49.965Z,2.00
2023-01-30T18:20:20.276Z,0.40
2023-01-30T18:22:48.240Z,2.07
2023-01-30T18:25:16.347Z,1.23
2023-01-30T18:27:45.230Z,0.43
2023-01-30T18:30:16.632Z,0.97
2023-01-30T18:32:52.577Z,0.70
2023-01-30T18:35:21.766Z,1.70
2023-01-30T18:37:50.027Z,0.37
2023-01-30T18:40:18.654Z,0.90
2023-01-30T18:42:48.403Z,0.20
2023-01-30T18:45:15.963Z,0.40
2023-01-30T18:47:43.252Z,0.40
2023-01-30T18:50:11.116Z,0.40
2023-01-30T18:52:38.555Z,0.30
2023-01-30T18:55:06.283Z,0.70
2023-01-30T18:57:33.727Z,0.40
2023-01-30T19:00:01.074Z,0.40
2023-01-30T19:02:28.424Z,0.30
2023-01-30T19:04:55.826Z,0.37
2023-01-30T19:07:23.314Z,1.23
2023-01-30T19:09:50.646Z,0.30
2023-01-30T19:12:36.739Z,0.47
2023-01-30T19:15:05.011Z,0.30
2023-01-30T19:17:33.390Z,0.33
2023-01-30T19:20:02.489Z,0.30
2023-01-30T19:22:29.852Z,0.40
2023-01-30T19:24:57.155Z,0.40
2023-01-30T19:27:26.134Z,0.30
2023-01-30T19:29:53.617Z,0.93
2023-01-30T19:32:20.977Z,0.47
2023-01-30T19:34:50.820Z,0.30
2023-01-30T19:37:18.543Z,0.40
2023-01-30T19:39:46.072Z,0.40
2023-01-30T19:42:13.582Z,0.40
2023-01-30T19:44:41.187Z,0.30
2023-01-30T19:47:08.890Z,0.93
2023-01-30T19:49:37.590Z,0.47
2023-01-30T19:52:05.027Z,0.40
2023-01-30T19:54:33.115Z,1.60
2023-01-30T19:57:00.459Z,0.33
2023-01-30T19:59:27.909Z,0.50
2023-01-30T20:01:55.389Z,0.40
2023-01-30T20:04:22.834Z,0.30
2023-01-30T20:06:50.327Z,0.40
2023-01-30T20:09:19.375Z,0.40
2023-01-30T20:11:46.788Z,0.40
2023-01-30T20:14:14.100Z,0.50
2023-01-30T20:16:41.722Z,0.50
2023-01-30T20:19:18.323Z,0.40
2023-01-30T20:21:45.855Z,0.50
2023-01-30T20:27:02.349Z,0.53
2023-01-30T20:29:30.826Z,0.67
2023-01-30T20:34:39.415Z,0.40
2023-01-30T20:39:42.275Z,0.50
2023-01-30T20:42:09.846Z,0.93
2023-01-30T20:44:37.446Z,0.50
2023-01-30T20:47:05.877Z,0.30
2023-01-30T20:49:33.496Z,0.40
2023-01-30T20:52:00.930Z,0.43
2023-01-30T20:54:28.509Z,0.40
2023-01-30T20:56:56.763Z,0.43
2023-01-30T20:59:24.969Z,0.40
2023-01-30T21:01:53.076Z,0.40
2023-01-30T21:04:21.840Z,0.70
2023-01-30T21:06:49.351Z,0.63
2023-01-30T21:09:22.379Z,0.50
2023-01-30T21:11:51.285Z,0.53
2023-01-30T21:14:18.870Z,0.40
2023-01-30T21:16:46.779Z,0.30
2023-01-30T21:19:16.356Z,0.50
2023-01-30T21:21:51.185Z,0.40
2023-01-30T21:24:22.272Z,0.40
2023-01-30T21:26:50.204Z,0.37
2023-01-30T21:29:21.555Z,0.50
2023-01-30T21:31:49.421Z,0.40
2023-01-30T21:34:17.045Z,0.50
2023-01-30T21:37:12.899Z,0.30
2023-01-30T21:39:59.288Z,0.30
2023-01-30T21:42:45.390Z,0.40
2023-01-30T21:45:13.100Z,0.40
2023-01-30T21:47:41.022Z,0.30
2023-01-30T21:50:09.419Z,0.50
2023-01-30T21:52:37.056Z,0.30
2023-01-30T21:55:05.421Z,0.63
2023-01-30T21:57:32.836Z,0.40
2023-01-30T22:00:00.351Z,0.50
2023-01-30T22:02:27.812Z,1.60
2023-01-30T22:04:55.155Z,0.40
2023-01-30T22:07:22.493Z,0.40
2023-01-30T22:09:49.820Z,0.40
2023-01-30T22:12:17.348Z,0.40
2023-01-30T22:14:44.674Z,0.30
2023-01-30T22:17:12.197Z,0.30
2023-01-30T22:19:39.769Z,0.40
2023-01-30T22:22:07.347Z,0.60
2023-01-30T22:24:34.827Z,0.43
2023-01-30T22:27:02.294Z,0.40
2023-01-30T22:29:29.676Z,0.50
2023-01-30T22:31:57.117Z,0.40
2023-01-30T22:34:24.560Z,0.40
2023-01-30T22:36:52.009Z,0.30
2023-01-30T22:39:19.361Z,0.50
2023-01-30T22:41:47.043Z,0.40
2023-01-30T22:44:14.558Z,0.50
2023-01-30T22:46:42.356Z,0.40
2023-01-30T22:49:10.464Z,1.37
2023-01-30T22:51:40.839Z,0.50
2023-01-30T22:54:15.770Z,0.40
2023-01-30T22:56:45.988Z,0.63
2023-01-30T22:59:14.274Z,0.50
2023-01-30T23:01:46.831Z,0.30
2023-01-30T23:04:16.381Z,0.40
2023-01-30T23:06:44.249Z,0.40
2023-01-30T23:09:15.763Z,0.50
2023-01-30T23:12:05.809Z,0.43
2023-01-30T23:14:33.460Z,0.50
2023-01-30T23:17:00.867Z,0.50
2023-01-30T23:19:28.364Z,0.40
2023-01-30T23:21:56.076Z,0.30
2023-01-30T23:24:23.487Z,0.40
2023-01-30T23:26:51.638Z,0.43
2023-01-30T23:29:21.961Z,0.50
2023-01-30T23:31:49.312Z,0.83
2023-01-30T23:34:19.192Z,0.50
2023-01-30T23:36:47.237Z,0.30
2023-01-30T23:39:15.111Z,0.40
2023-01-30T23:41:43.180Z,0.63
2023-01-30T23:44:10.828Z,0.40
2023-01-30T23:46:40.811Z,0.53
2023-01-30T23:49:12.559Z,0.40
2023-01-30T23:51:42.357Z,0.30
2023-01-30T23:54:10.456Z,0.40
2023-01-30T23:56:40.365Z,0.30
2023-01-30T23:59:08.049Z,0.40
